sensor_id;sensor_type;location;lat;lon;timestamp;temperature;humidity
19567;DHT22;9930;49.240;8.548;2022-08-05T00:01:17;31.10;41.70
19567;DHT22;9930;49.240;8.548;2022-08-05T00:03:46;31.10;41.80
19567;DHT22;9930;49.240;8.548;2022-08-05T00:06:16;31.10;41.70
19567;DHT22;9930;49.240;8.548;2022-08-05T00:08:43;31.20;42.00
19567;DHT22;9930;49.240;8.548;2022-08-05T00:11:13;31.10;42.00
19567;DHT22;9930;49.240;8.548;2022-08-05T00:13:43;31.20;42.00
19567;DHT22;9930;49.240;8.548;2022-08-05T00:16:11;31.20;42.00
19567;DHT22;9930;49.240;8.548;2022-08-05T00:18:44;31.20;42.00
19567;DHT22;9930;49.240;8.548;2022-08-05T00:21:12;31.20;42.20
19567;DHT22;9930;49.240;8.548;2022-08-05T00:23:39;31.20;42.10
19567;DHT22;9930;49.240;8.548;2022-08-05T00:26:06;31.20;42.20
19567;DHT22;9930;49.240;8.548;2022-08-05T00:28:33;31.20;42.20
19567;DHT22;9930;49.240;8.548;2022-08-05T00:31:04;31.10;42.10
19567;DHT22;9930;49.240;8.548;2022-08-05T00:33:31;31.10;42.20
19567;DHT22;9930;49.240;8.548;2022-08-05T00:35:57;31.10;42.30
19567;DHT22;9930;49.240;8.548;2022-08-05T00:38:26;31.10;42.80
19567;DHT22;9930;49.240;8.548;2022-08-05T00:40:56;31.00;42.80
19567;DHT22;9930;49.240;8.548;2022-08-05T00:43:23;31.00;43.60
19567;DHT22;9930;49.240;8.548;2022-08-05T00:45:49;30.90;43.50
19567;DHT22;9930;49.240;8.548;2022-08-05T00:48:21;30.90;43.60
19567;DHT22;9930;49.240;8.548;2022-08-05T00:50:50;30.80;43.90
19567;DHT22;9930;49.240;8.548;2022-08-05T00:53:18;30.80;44.00
19567;DHT22;9930;49.240;8.548;2022-08-05T00:55:46;30.70;44.40
19567;DHT22;9930;49.240;8.548;2022-08-05T00:58:15;30.70;44.30
19567;DHT22;9930;49.240;8.548;2022-08-05T01:00:45;30.60;44.50
19567;DHT22;9930;49.240;8.548;2022-08-05T01:03:14;30.60;44.50
19567;DHT22;9930;49.240;8.548;2022-08-05T01:05:41;30.60;44.70
19567;DHT22;9930;49.240;8.548;2022-08-05T01:08:09;30.60;44.70
19567;DHT22;9930;49.240;8.548;2022-08-05T01:10:45;30.50;44.80
19567;DHT22;9930;49.240;8.548;2022-08-05T01:16:25;30.50;45.10
19567;DHT22;9930;49.240;8.548;2022-08-05T01:28:44;30.30;45.90
19567;DHT22;9930;49.240;8.548;2022-08-05T01:31:38;30.20;46.00
19567;DHT22;9930;49.240;8.548;2022-08-05T01:37:03;30.20;46.10
19567;DHT22;9930;49.240;8.548;2022-08-05T01:39:40;30.10;46.60
19567;DHT22;9930;49.240;8.548;2022-08-05T01:42:12;30.10;46.50
19567;DHT22;9930;49.240;8.548;2022-08-05T01:44:42;30.10;46.60
19567;DHT22;9930;49.240;8.548;2022-08-05T01:47:09;30.10;46.60
19567;DHT22;9930;49.240;8.548;2022-08-05T01:49:50;30.10;46.70
19567;DHT22;9930;49.240;8.548;2022-08-05T01:52:18;30.00;46.70
19567;DHT22;9930;49.240;8.548;2022-08-05T01:54:54;30.10;46.90
19567;DHT22;9930;49.240;8.548;2022-08-05T01:57:31;30.00;47.20
19567;DHT22;9930;49.240;8.548;2022-08-05T02:00:04;30.00;47.30
19567;DHT22;9930;49.240;8.548;2022-08-05T02:02:42;30.00;47.20
19567;DHT22;9930;49.240;8.548;2022-08-05T02:05:19;30.00;47.20
19567;DHT22;9930;49.240;8.548;2022-08-05T02:07:47;30.00;47.30
19567;DHT22;9930;49.240;8.548;2022-08-05T02:10:15;30.00;47.30
19567;DHT22;9930;49.240;8.548;2022-08-05T02:12:53;30.00;47.50
19567;DHT22;9930;49.240;8.548;2022-08-05T02:15:34;29.90;47.60
19567;DHT22;9930;49.240;8.548;2022-08-05T02:18:09;29.90;47.90
19567;DHT22;9930;49.240;8.548;2022-08-05T02:20:53;29.90;47.70
19567;DHT22;9930;49.240;8.548;2022-08-05T02:23:29;29.90;47.90
19567;DHT22;9930;49.240;8.548;2022-08-05T02:26:04;29.80;47.90
19567;DHT22;9930;49.240;8.548;2022-08-05T02:28:35;29.80;47.90
19567;DHT22;9930;49.240;8.548;2022-08-05T02:31:25;29.80;48.00
19567;DHT22;9930;49.240;8.548;2022-08-05T02:34:05;29.70;48.40
19567;DHT22;9930;49.240;8.548;2022-08-05T02:36:41;29.70;48.60
19567;DHT22;9930;49.240;8.548;2022-08-05T02:39:24;29.70;48.40
19567;DHT22;9930;49.240;8.548;2022-08-05T02:41:54;29.70;48.60
19567;DHT22;9930;49.240;8.548;2022-08-05T02:44:23;29.70;48.50
19567;DHT22;9930;49.240;8.548;2022-08-05T02:46:55;29.70;48.60
19567;DHT22;9930;49.240;8.548;2022-08-05T02:49:24;29.60;48.60
19567;DHT22;9930;49.240;8.548;2022-08-05T02:51:51;29.60;48.80
19567;DHT22;9930;49.240;8.548;2022-08-05T02:54:21;29.60;48.90
19567;DHT22;9930;49.240;8.548;2022-08-05T02:56:47;29.60;48.90
19567;DHT22;9930;49.240;8.548;2022-08-05T02:59:17;29.60;48.90
19567;DHT22;9930;49.240;8.548;2022-08-05T03:01:44;29.60;49.00
19567;DHT22;9930;49.240;8.548;2022-08-05T03:04:16;29.60;49.20
19567;DHT22;9930;49.240;8.548;2022-08-05T03:06:45;29.60;49.30
19567;DHT22;9930;49.240;8.548;2022-08-05T03:09:12;29.60;49.30
19567;DHT22;9930;49.240;8.548;2022-08-05T03:11:41;29.60;49.30
19567;DHT22;9930;49.240;8.548;2022-08-05T03:14:16;29.60;49.30
19567;DHT22;9930;49.240;8.548;2022-08-05T03:16:44;29.50;49.30
19567;DHT22;9930;49.240;8.548;2022-08-05T03:19:10;29.50;49.50
19567;DHT22;9930;49.240;8.548;2022-08-05T03:21:39;29.50;49.50
19567;DHT22;9930;49.240;8.548;2022-08-05T03:24:08;29.50;49.50
19567;DHT22;9930;49.240;8.548;2022-08-05T03:26:34;29.50;49.50
19567;DHT22;9930;49.240;8.548;2022-08-05T03:29:02;29.50;49.60
19567;DHT22;9930;49.240;8.548;2022-08-05T03:31:31;29.50;49.60
19567;DHT22;9930;49.240;8.548;2022-08-05T03:34:00;29.50;49.70
19567;DHT22;9930;49.240;8.548;2022-08-05T03:36:26;29.50;49.80
19567;DHT22;9930;49.240;8.548;2022-08-05T03:38:52;29.50;49.90
19567;DHT22;9930;49.240;8.548;2022-08-05T03:41:17;29.50;50.00
19567;DHT22;9930;49.240;8.548;2022-08-05T03:43:43;29.50;50.10
19567;DHT22;9930;49.240;8.548;2022-08-05T03:46:09;29.50;50.40
19567;DHT22;9930;49.240;8.548;2022-08-05T03:48:35;29.50;50.40
19567;DHT22;9930;49.240;8.548;2022-08-05T03:51:15;29.50;50.30
19567;DHT22;9930;49.240;8.548;2022-08-05T03:53:54;29.40;50.70
19567;DHT22;9930;49.240;8.548;2022-08-05T03:56:38;29.40;51.30
19567;DHT22;9930;49.240;8.548;2022-08-05T03:59:16;29.40;53.20
19567;DHT22;9930;49.240;8.548;2022-08-05T04:01:50;29.30;52.70
19567;DHT22;9930;49.240;8.548;2022-08-05T04:04:19;29.30;53.00
19567;DHT22;9930;49.240;8.548;2022-08-05T04:07:07;29.20;53.10
19567;DHT22;9930;49.240;8.548;2022-08-05T04:09:55;29.10;53.90
19567;DHT22;9930;49.240;8.548;2022-08-05T04:12:26;29.00;54.00
19567;DHT22;9930;49.240;8.548;2022-08-05T04:14:55;28.90;53.90
19567;DHT22;9930;49.240;8.548;2022-08-05T04:17:24;28.90;54.40
19567;DHT22;9930;49.240;8.548;2022-08-05T04:24:03;28.70;56.00
19567;DHT22;9930;49.240;8.548;2022-08-05T04:26:37;28.60;55.80
19567;DHT22;9930;49.240;8.548;2022-08-05T04:29:05;28.50;55.40
19567;DHT22;9930;49.240;8.548;2022-08-05T04:31:54;28.50;56.00
19567;DHT22;9930;49.240;8.548;2022-08-05T04:38:27;28.30;57.00
19567;DHT22;9930;49.240;8.548;2022-08-05T04:40:58;28.30;56.60
19567;DHT22;9930;49.240;8.548;2022-08-05T04:43:27;28.20;56.60
19567;DHT22;9930;49.240;8.548;2022-08-05T04:53:10;28.00;56.70
19567;DHT22;9930;49.240;8.548;2022-08-05T04:56:33;27.90;57.50
19567;DHT22;9930;49.240;8.548;2022-08-05T04:59:01;27.80;56.60
19567;DHT22;9930;49.240;8.548;2022-08-05T05:12:06;27.70;57.10
19567;DHT22;9930;49.240;8.548;2022-08-05T05:14:35;27.70;57.90
19567;DHT22;9930;49.240;8.548;2022-08-05T05:17:23;27.70;57.90
19567;DHT22;9930;49.240;8.548;2022-08-05T05:23:27;27.70;58.90
19567;DHT22;9930;49.240;8.548;2022-08-05T05:25:53;27.70;58.80
19567;DHT22;9930;49.240;8.548;2022-08-05T05:28:25;27.80;58.20
19567;DHT22;9930;49.240;8.548;2022-08-05T05:31:25;27.80;58.50
19567;DHT22;9930;49.240;8.548;2022-08-05T05:37:57;27.90;58.10
19567;DHT22;9930;49.240;8.548;2022-08-05T05:40:31;27.90;58.60
19567;DHT22;9930;49.240;8.548;2022-08-05T05:43:03;28.00;58.70
19567;DHT22;9930;49.240;8.548;2022-08-05T05:45:52;28.10;59.10
19567;DHT22;9930;49.240;8.548;2022-08-05T05:49:56;28.20;59.60
19567;DHT22;9930;49.240;8.548;2022-08-05T05:55:50;28.40;58.40
19567;DHT22;9930;49.240;8.548;2022-08-05T05:58:23;28.70;58.00
19567;DHT22;9930;49.240;8.548;2022-08-05T06:00:55;28.70;57.30
19567;DHT22;9930;49.240;8.548;2022-08-05T06:03:57;28.80;57.20
19567;DHT22;9930;49.240;8.548;2022-08-05T06:10:04;28.90;57.00
19567;DHT22;9930;49.240;8.548;2022-08-05T06:12:35;28.80;56.80
19567;DHT22;9930;49.240;8.548;2022-08-05T06:15:24;28.80;56.60
19567;DHT22;9930;49.240;8.548;2022-08-05T06:18:28;28.70;57.40
19567;DHT22;9930;49.240;8.548;2022-08-05T06:21:23;28.70;57.00
19567;DHT22;9930;49.240;8.548;2022-08-05T06:24:33;28.60;56.80
19567;DHT22;9930;49.240;8.548;2022-08-05T06:27:08;28.60;57.50
19567;DHT22;9930;49.240;8.548;2022-08-05T06:29:36;28.60;57.50
19567;DHT22;9930;49.240;8.548;2022-08-05T06:32:32;28.60;58.20
19567;DHT22;9930;49.240;8.548;2022-08-05T06:36:13;28.60;58.50
19567;DHT22;9930;49.240;8.548;2022-08-05T06:39:28;28.70;58.40
19567;DHT22;9930;49.240;8.548;2022-08-05T06:42:04;28.80;58.60
19567;DHT22;9930;49.240;8.548;2022-08-05T06:44:32;28.90;58.10
19567;DHT22;9930;49.240;8.548;2022-08-05T06:53:51;29.10;59.10
19567;DHT22;9930;49.240;8.548;2022-08-05T06:56:33;29.40;58.90
19567;DHT22;9930;49.240;8.548;2022-08-05T06:58:59;29.70;59.00
19567;DHT22;9930;49.240;8.548;2022-08-05T07:01:27;29.90;58.30
19567;DHT22;9930;49.240;8.548;2022-08-05T07:04:04;30.20;57.40
19567;DHT22;9930;49.240;8.548;2022-08-05T07:10:20;30.40;56.10
19567;DHT22;9930;49.240;8.548;2022-08-05T07:12:46;30.50;56.50
19567;DHT22;9930;49.240;8.548;2022-08-05T07:26:31;30.60;56.10
19567;DHT22;9930;49.240;8.548;2022-08-05T07:28:57;30.70;56.50
19567;DHT22;9930;49.240;8.548;2022-08-05T07:35:17;30.80;56.00
19567;DHT22;9930;49.240;8.548;2022-08-05T07:37:45;31.00;56.40
19567;DHT22;9930;49.240;8.548;2022-08-05T07:40:13;31.10;55.90
19567;DHT22;9930;49.240;8.548;2022-08-05T07:42:48;31.20;55.70
19567;DHT22;9930;49.240;8.548;2022-08-05T07:45:15;31.30;55.30
19567;DHT22;9930;49.240;8.548;2022-08-05T07:47:41;31.30;55.40
19567;DHT22;9930;49.240;8.548;2022-08-05T07:50:15;31.30;55.30
19567;DHT22;9930;49.240;8.548;2022-08-05T07:52:47;31.40;55.00
19567;DHT22;9930;49.240;8.548;2022-08-05T07:55:16;31.40;55.00
19567;DHT22;9930;49.240;8.548;2022-08-05T07:57:45;31.50;55.00
19567;DHT22;9930;49.240;8.548;2022-08-05T08:00:15;31.60;54.70
19567;DHT22;9930;49.240;8.548;2022-08-05T08:02:42;31.60;54.90
19567;DHT22;9930;49.240;8.548;2022-08-05T08:05:16;31.80;54.60
19567;DHT22;9930;49.240;8.548;2022-08-05T08:07:46;31.90;54.10
19567;DHT22;9930;49.240;8.548;2022-08-05T08:10:15;32.00;53.30
19567;DHT22;9930;49.240;8.548;2022-08-05T08:12:44;32.10;52.80
19567;DHT22;9930;49.240;8.548;2022-08-05T08:15:12;32.20;52.40
19567;DHT22;9930;49.240;8.548;2022-08-05T08:17:40;32.20;52.00
19567;DHT22;9930;49.240;8.548;2022-08-05T08:20:09;32.20;51.10
19567;DHT22;9930;49.240;8.548;2022-08-05T08:22:39;32.20;51.40
19567;DHT22;9930;49.240;8.548;2022-08-05T08:25:08;32.20;51.40
19567;DHT22;9930;49.240;8.548;2022-08-05T08:27:34;32.10;51.30
19567;DHT22;9930;49.240;8.548;2022-08-05T08:30:00;32.10;51.20
19567;DHT22;9930;49.240;8.548;2022-08-05T08:32:33;32.10;51.40
19567;DHT22;9930;49.240;8.548;2022-08-05T08:35:00;32.10;51.40
19567;DHT22;9930;49.240;8.548;2022-08-05T08:37:26;32.30;51.40
19567;DHT22;9930;49.240;8.548;2022-08-05T08:39:52;32.30;50.20
19567;DHT22;9930;49.240;8.548;2022-08-05T08:42:21;32.40;49.80
19567;DHT22;9930;49.240;8.548;2022-08-05T08:44:48;32.40;49.10
19567;DHT22;9930;49.240;8.548;2022-08-05T08:47:18;32.50;49.00
19567;DHT22;9930;49.240;8.548;2022-08-05T08:49:52;32.50;48.50
19567;DHT22;9930;49.240;8.548;2022-08-05T08:52:30;32.40;48.50
19567;DHT22;9930;49.240;8.548;2022-08-05T08:54:58;32.30;48.40
19567;DHT22;9930;49.240;8.548;2022-08-05T08:57:24;32.30;47.90
19567;DHT22;9930;49.240;8.548;2022-08-05T08:59:51;32.20;48.40
19567;DHT22;9930;49.240;8.548;2022-08-05T09:02:19;32.20;48.60
19567;DHT22;9930;49.240;8.548;2022-08-05T09:04:46;32.20;48.50
19567;DHT22;9930;49.240;8.548;2022-08-05T09:07:18;32.20;48.00
19567;DHT22;9930;49.240;8.548;2022-08-05T09:09:48;32.20;47.40
19567;DHT22;9930;49.240;8.548;2022-08-05T09:12:16;32.30;47.20
19567;DHT22;9930;49.240;8.548;2022-08-05T09:14:47;32.30;47.90
19567;DHT22;9930;49.240;8.548;2022-08-05T09:17:16;32.30;46.80
19567;DHT22;9930;49.240;8.548;2022-08-05T09:19:46;32.30;47.20
19567;DHT22;9930;49.240;8.548;2022-08-05T09:22:15;32.20;46.60
19567;DHT22;9930;49.240;8.548;2022-08-05T09:24:55;32.20;46.70
19567;DHT22;9930;49.240;8.548;2022-08-05T09:27:31;32.20;46.60
19567;DHT22;9930;49.240;8.548;2022-08-05T09:29:59;32.10;46.30
19567;DHT22;9930;49.240;8.548;2022-08-05T09:32:38;32.10;46.70
19567;DHT22;9930;49.240;8.548;2022-08-05T09:35:16;32.10;47.10
19567;DHT22;9930;49.240;8.548;2022-08-05T09:37:52;32.10;47.60
19567;DHT22;9930;49.240;8.548;2022-08-05T09:43:06;32.20;47.30
19567;DHT22;9930;49.240;8.548;2022-08-05T09:45:39;32.40;47.70
19567;DHT22;9930;49.240;8.548;2022-08-05T09:48:43;32.50;46.80
19567;DHT22;9930;49.240;8.548;2022-08-05T09:51:11;32.50;46.30
19567;DHT22;9930;49.240;8.548;2022-08-05T09:53:54;32.70;46.40
19567;DHT22;9930;49.240;8.548;2022-08-05T09:56:26;32.70;46.10
19567;DHT22;9930;49.240;8.548;2022-08-05T09:59:04;32.80;46.30
19567;DHT22;9930;49.240;8.548;2022-08-05T10:01:31;32.90;46.10
19567;DHT22;9930;49.240;8.548;2022-08-05T10:04:09;33.00;45.90
19567;DHT22;9930;49.240;8.548;2022-08-05T10:06:51;33.10;45.00
19567;DHT22;9930;49.240;8.548;2022-08-05T10:09:19;33.20;45.80
19567;DHT22;9930;49.240;8.548;2022-08-05T10:11:48;33.20;45.80
19567;DHT22;9930;49.240;8.548;2022-08-05T10:14:31;33.30;45.20
19567;DHT22;9930;49.240;8.548;2022-08-05T10:17:12;33.30;45.10
19567;DHT22;9930;49.240;8.548;2022-08-05T10:19:41;33.40;45.20
19567;DHT22;9930;49.240;8.548;2022-08-05T10:22:11;33.40;45.40
19567;DHT22;9930;49.240;8.548;2022-08-05T10:24:44;33.50;45.20
19567;DHT22;9930;49.240;8.548;2022-08-05T10:27:14;33.50;44.70
19567;DHT22;9930;49.240;8.548;2022-08-05T10:29:45;33.60;44.80
19567;DHT22;9930;49.240;8.548;2022-08-05T10:32:16;33.60;44.50
19567;DHT22;9930;49.240;8.548;2022-08-05T10:34:46;33.60;44.40
19567;DHT22;9930;49.240;8.548;2022-08-05T10:37:16;33.70;43.90
19567;DHT22;9930;49.240;8.548;2022-08-05T10:39:50;33.80;43.90
19567;DHT22;9930;49.240;8.548;2022-08-05T10:42:23;33.70;43.30
19567;DHT22;9930;49.240;8.548;2022-08-05T10:44:55;33.80;43.10
19567;DHT22;9930;49.240;8.548;2022-08-05T10:47:34;33.80;43.20
19567;DHT22;9930;49.240;8.548;2022-08-05T10:50:10;33.70;43.50
19567;DHT22;9930;49.240;8.548;2022-08-05T10:52:47;33.80;44.00
19567;DHT22;9930;49.240;8.548;2022-08-05T10:55:28;33.90;43.30
19567;DHT22;9930;49.240;8.548;2022-08-05T10:58:06;33.90;43.80
19567;DHT22;9930;49.240;8.548;2022-08-05T11:00:34;33.90;43.90
19567;DHT22;9930;49.240;8.548;2022-08-05T11:05:34;34.10;43.50
19567;DHT22;9930;49.240;8.548;2022-08-05T11:08:08;34.10;43.30
19567;DHT22;9930;49.240;8.548;2022-08-05T11:10:36;34.20;43.30
19567;DHT22;9930;49.240;8.548;2022-08-05T11:13:04;34.30;42.60
19567;DHT22;9930;49.240;8.548;2022-08-05T11:15:37;34.30;42.40
19567;DHT22;9930;49.240;8.548;2022-08-05T11:18:28;34.30;42.30
19567;DHT22;9930;49.240;8.548;2022-08-05T11:20:55;34.30;42.20
19567;DHT22;9930;49.240;8.548;2022-08-05T11:23:29;34.40;42.60
19567;DHT22;9930;49.240;8.548;2022-08-05T11:26:05;34.40;42.60
19567;DHT22;9930;49.240;8.548;2022-08-05T11:35:54;34.50;41.30
19567;DHT22;9930;49.240;8.548;2022-08-05T11:41:21;34.50;40.70
19567;DHT22;9930;49.240;8.548;2022-08-05T11:46:31;34.60;40.70
19567;DHT22;9930;49.240;8.548;2022-08-05T11:49:03;34.50;40.30
19567;DHT22;9930;49.240;8.548;2022-08-05T11:51:30;34.60;41.30
19567;DHT22;9930;49.240;8.548;2022-08-05T11:53:56;34.60;40.80
19567;DHT22;9930;49.240;8.548;2022-08-05T11:56:25;34.60;40.70
19567;DHT22;9930;49.240;8.548;2022-08-05T11:59:19;34.60;40.60
19567;DHT22;9930;49.240;8.548;2022-08-05T12:04:38;34.50;40.90
19567;DHT22;9930;49.240;8.548;2022-08-05T12:07:09;34.60;41.00
19567;DHT22;9930;49.240;8.548;2022-08-05T12:09:39;34.60;40.90
19567;DHT22;9930;49.240;8.548;2022-08-05T12:12:07;34.60;40.90
19567;DHT22;9930;49.240;8.548;2022-08-05T12:14:41;34.60;40.90
19567;DHT22;9930;49.240;8.548;2022-08-05T12:17:12;34.50;41.00
19567;DHT22;9930;49.240;8.548;2022-08-05T12:19:51;34.50;41.20
19567;DHT22;9930;49.240;8.548;2022-08-05T12:22:21;34.50;41.20
19567;DHT22;9930;49.240;8.548;2022-08-05T12:24:54;34.50;41.40
19567;DHT22;9930;49.240;8.548;2022-08-05T12:27:27;34.50;41.40
19567;DHT22;9930;49.240;8.548;2022-08-05T12:30:05;34.40;41.40
19567;DHT22;9930;49.240;8.548;2022-08-05T12:32:32;34.40;41.70
19567;DHT22;9930;49.240;8.548;2022-08-05T12:35:02;34.40;41.80
19567;DHT22;9930;49.240;8.548;2022-08-05T12:37:29;34.40;41.80
19567;DHT22;9930;49.240;8.548;2022-08-05T12:39:58;34.40;42.00
19567;DHT22;9930;49.240;8.548;2022-08-05T12:42:28;34.40;42.00
19567;DHT22;9930;49.240;8.548;2022-08-05T12:45:15;34.40;42.00
19567;DHT22;9930;49.240;8.548;2022-08-05T12:47:42;34.40;42.00
19567;DHT22;9930;49.240;8.548;2022-08-05T12:50:14;34.40;42.30
19567;DHT22;9930;49.240;8.548;2022-08-05T12:52:41;34.30;42.40
19567;DHT22;9930;49.240;8.548;2022-08-05T12:55:21;34.30;42.40
19567;DHT22;9930;49.240;8.548;2022-08-05T12:57:49;34.30;42.40
19567;DHT22;9930;49.240;8.548;2022-08-05T13:00:21;34.40;42.50
19567;DHT22;9930;49.240;8.548;2022-08-05T13:02:51;34.30;42.40
19567;DHT22;9930;49.240;8.548;2022-08-05T13:05:19;34.30;42.20
19567;DHT22;9930;49.240;8.548;2022-08-05T13:07:47;34.30;42.30
19567;DHT22;9930;49.240;8.548;2022-08-05T13:10:15;34.20;42.40
19567;DHT22;9930;49.240;8.548;2022-08-05T13:12:43;34.10;42.30
19567;DHT22;9930;49.240;8.548;2022-08-05T13:15:12;34.10;42.60
19567;DHT22;9930;49.240;8.548;2022-08-05T13:17:52;34.10;42.60
19567;DHT22;9930;49.240;8.548;2022-08-05T13:20:19;34.00;42.60
19567;DHT22;9930;49.240;8.548;2022-08-05T13:22:52;34.00;42.60
19567;DHT22;9930;49.240;8.548;2022-08-05T13:25:23;34.00;42.60
19567;DHT22;9930;49.240;8.548;2022-08-05T13:27:52;33.90;42.80
19567;DHT22;9930;49.240;8.548;2022-08-05T13:30:21;33.90;42.90
19567;DHT22;9930;49.240;8.548;2022-08-05T13:32:52;33.90;42.80
19567;DHT22;9930;49.240;8.548;2022-08-05T13:35:19;33.90;42.50
19567;DHT22;9930;49.240;8.548;2022-08-05T13:37:46;33.90;42.70
19567;DHT22;9930;49.240;8.548;2022-08-05T13:40:14;33.80;42.80
19567;DHT22;9930;49.240;8.548;2022-08-05T13:42:44;33.70;42.70
19567;DHT22;9930;49.240;8.548;2022-08-05T13:45:10;33.60;42.80
19567;DHT22;9930;49.240;8.548;2022-08-05T13:47:36;33.60;42.90
19567;DHT22;9930;49.240;8.548;2022-08-05T13:50:04;33.50;43.00
19567;DHT22;9930;49.240;8.548;2022-08-05T13:52:33;33.50;42.90
19567;DHT22;9930;49.240;8.548;2022-08-05T13:54:59;33.40;43.10
19567;DHT22;9930;49.240;8.548;2022-08-05T13:57:27;33.40;43.20
19567;DHT22;9930;49.240;8.548;2022-08-05T13:59:53;33.30;43.10
19567;DHT22;9930;49.240;8.548;2022-08-05T14:02:18;33.20;43.10
19567;DHT22;9930;49.240;8.548;2022-08-05T14:04:48;33.10;43.30
19567;DHT22;9930;49.240;8.548;2022-08-05T14:07:38;33.10;43.40
19567;DHT22;9930;49.240;8.548;2022-08-05T14:10:18;33.10;43.70
19567;DHT22;9930;49.240;8.548;2022-08-05T14:12:47;33.10;43.80
19567;DHT22;9930;49.240;8.548;2022-08-05T14:15:15;33.10;43.70
19567;DHT22;9930;49.240;8.548;2022-08-05T14:17:44;33.00;43.60
19567;DHT22;9930;49.240;8.548;2022-08-05T14:20:13;33.10;43.80
19567;DHT22;9930;49.240;8.548;2022-08-05T14:22:39;33.10;44.00
19567;DHT22;9930;49.240;8.548;2022-08-05T14:25:07;33.10;44.00
19567;DHT22;9930;49.240;8.548;2022-08-05T14:27:35;33.10;43.70
19567;DHT22;9930;49.240;8.548;2022-08-05T14:30:02;33.20;43.60
19567;DHT22;9930;49.240;8.548;2022-08-05T14:32:31;33.10;43.60
19567;DHT22;9930;49.240;8.548;2022-08-05T14:35:01;33.10;43.80
19567;DHT22;9930;49.240;8.548;2022-08-05T14:37:28;33.00;43.80
19567;DHT22;9930;49.240;8.548;2022-08-05T14:39:54;33.00;43.80
19567;DHT22;9930;49.240;8.548;2022-08-05T14:42:22;33.00;43.80
19567;DHT22;9930;49.240;8.548;2022-08-05T14:44:48;33.00;44.40
19567;DHT22;9930;49.240;8.548;2022-08-05T14:47:15;33.00;43.90
19567;DHT22;9930;49.240;8.548;2022-08-05T14:49:41;33.00;43.80
19567;DHT22;9930;49.240;8.548;2022-08-05T14:52:07;33.10;44.00
19567;DHT22;9930;49.240;8.548;2022-08-05T14:54:35;33.10;44.00
19567;DHT22;9930;49.240;8.548;2022-08-05T14:57:04;33.10;44.00
19567;DHT22;9930;49.240;8.548;2022-08-05T14:59:30;33.10;43.90
19567;DHT22;9930;49.240;8.548;2022-08-05T15:01:56;33.10;43.80
19567;DHT22;9930;49.240;8.548;2022-08-05T15:04:22;33.10;44.00
19567;DHT22;9930;49.240;8.548;2022-08-05T15:06:49;33.20;43.80
19567;DHT22;9930;49.240;8.548;2022-08-05T15:09:19;33.10;43.70
19567;DHT22;9930;49.240;8.548;2022-08-05T15:11:46;33.10;43.80
19567;DHT22;9930;49.240;8.548;2022-08-05T15:14:14;33.10;43.70
19567;DHT22;9930;49.240;8.548;2022-08-05T15:16:41;33.10;43.70
19567;DHT22;9930;49.240;8.548;2022-08-05T15:19:06;33.10;43.70
19567;DHT22;9930;49.240;8.548;2022-08-05T15:21:32;33.00;43.80
19567;DHT22;9930;49.240;8.548;2022-08-05T15:23:58;33.00;44.40
19567;DHT22;9930;49.240;8.548;2022-08-05T15:26:26;32.90;43.80
19567;DHT22;9930;49.240;8.548;2022-08-05T15:28:52;32.80;43.80
19567;DHT22;9930;49.240;8.548;2022-08-05T15:31:17;32.70;43.80
19567;DHT22;9930;49.240;8.548;2022-08-05T15:33:45;32.70;43.90
19567;DHT22;9930;49.240;8.548;2022-08-05T15:36:10;32.60;44.00
19567;DHT22;9930;49.240;8.548;2022-08-05T15:38:38;32.50;44.20
19567;DHT22;9930;49.240;8.548;2022-08-05T15:41:04;32.40;44.30
19567;DHT22;9930;49.240;8.548;2022-08-05T15:43:30;32.40;44.50
19567;DHT22;9930;49.240;8.548;2022-08-05T15:45:56;32.30;44.40
19567;DHT22;9930;49.240;8.548;2022-08-05T15:48:24;32.30;44.70
19567;DHT22;9930;49.240;8.548;2022-08-05T15:50:52;32.20;44.80
19567;DHT22;9930;49.240;8.548;2022-08-05T15:53:20;32.20;45.10
19567;DHT22;9930;49.240;8.548;2022-08-05T15:55:46;32.20;45.40
19567;DHT22;9930;49.240;8.548;2022-08-05T15:58:13;32.10;45.50
19567;DHT22;9930;49.240;8.548;2022-08-05T16:00:39;32.10;45.60
19567;DHT22;9930;49.240;8.548;2022-08-05T16:03:06;32.10;45.70
19567;DHT22;9930;49.240;8.548;2022-08-05T16:05:32;32.00;45.80
19567;DHT22;9930;49.240;8.548;2022-08-05T16:08:01;31.80;45.70
19567;DHT22;9930;49.240;8.548;2022-08-05T16:10:34;31.70;46.00
19567;DHT22;9930;49.240;8.548;2022-08-05T16:12:59;31.50;46.40
19567;DHT22;9930;49.240;8.548;2022-08-05T16:15:30;31.40;46.50
19567;DHT22;9930;49.240;8.548;2022-08-05T16:17:56;31.20;46.80
19567;DHT22;9930;49.240;8.548;2022-08-05T16:20:24;31.10;47.10
19567;DHT22;9930;49.240;8.548;2022-08-05T16:22:50;31.00;47.10
19567;DHT22;9930;49.240;8.548;2022-08-05T16:25:16;31.00;47.40
19567;DHT22;9930;49.240;8.548;2022-08-05T16:27:45;31.00;47.60
19567;DHT22;9930;49.240;8.548;2022-08-05T16:30:16;31.00;47.60
19567;DHT22;9930;49.240;8.548;2022-08-05T16:32:43;30.90;47.50
19567;DHT22;9930;49.240;8.548;2022-08-05T16:35:11;30.80;47.40
19567;DHT22;9930;49.240;8.548;2022-08-05T16:37:36;30.70;47.40
19567;DHT22;9930;49.240;8.548;2022-08-05T16:40:05;30.60;48.00
19567;DHT22;9930;49.240;8.548;2022-08-05T16:42:31;30.50;47.40
19567;DHT22;9930;49.240;8.548;2022-08-05T16:44:58;30.40;47.50
19567;DHT22;9930;49.240;8.548;2022-08-05T16:47:25;30.30;47.50
19567;DHT22;9930;49.240;8.548;2022-08-05T16:49:51;30.20;47.60
19567;DHT22;9930;49.240;8.548;2022-08-05T16:52:17;30.20;47.60
19567;DHT22;9930;49.240;8.548;2022-08-05T16:54:44;30.20;47.70
19567;DHT22;9930;49.240;8.548;2022-08-05T16:57:11;30.10;47.90
19567;DHT22;9930;49.240;8.548;2022-08-05T16:59:40;30.10;47.80
19567;DHT22;9930;49.240;8.548;2022-08-05T17:02:08;30.10;47.80
19567;DHT22;9930;49.240;8.548;2022-08-05T17:04:36;30.00;47.60
19567;DHT22;9930;49.240;8.548;2022-08-05T17:07:02;30.00;47.70
19567;DHT22;9930;49.240;8.548;2022-08-05T17:09:30;30.00;47.80
19567;DHT22;9930;49.240;8.548;2022-08-05T17:11:56;29.90;47.80
19567;DHT22;9930;49.240;8.548;2022-08-05T17:14:22;29.80;47.90
19567;DHT22;9930;49.240;8.548;2022-08-05T17:16:50;29.70;47.90
19567;DHT22;9930;49.240;8.548;2022-08-05T17:19:16;29.70;48.00
19567;DHT22;9930;49.240;8.548;2022-08-05T17:21:45;29.60;48.10
19567;DHT22;9930;49.240;8.548;2022-08-05T17:24:18;29.50;48.20
19567;DHT22;9930;49.240;8.548;2022-08-05T17:26:46;29.50;48.50
19567;DHT22;9930;49.240;8.548;2022-08-05T17:29:12;29.40;48.60
19567;DHT22;9930;49.240;8.548;2022-08-05T17:31:46;29.40;48.70
19567;DHT22;9930;49.240;8.548;2022-08-05T17:34:16;29.30;48.80
19567;DHT22;9930;49.240;8.548;2022-08-05T17:36:49;29.20;49.00
19567;DHT22;9930;49.240;8.548;2022-08-05T17:39:19;29.10;49.30
19567;DHT22;9930;49.240;8.548;2022-08-05T17:41:46;29.10;49.40
19567;DHT22;9930;49.240;8.548;2022-08-05T17:44:16;29.00;49.30
19567;DHT22;9930;49.240;8.548;2022-08-05T17:46:42;28.90;49.50
19567;DHT22;9930;49.240;8.548;2022-08-05T17:49:10;28.90;49.50
19567;DHT22;9930;49.240;8.548;2022-08-05T17:51:35;28.80;49.60
19567;DHT22;9930;49.240;8.548;2022-08-05T17:54:01;28.70;49.80
19567;DHT22;9930;49.240;8.548;2022-08-05T17:56:29;28.70;49.80